May 2021: Check out the pages added or updated for Irish Lifeboat Launches, Pollen forecast & Fire Risk Rating!.
   Currently OK   -   there are no local weather warnings, but check here for tomorrow's warnings (if any).

Ireland METAR reports

 

EIDW - Dublin Airport, Ireland
Distance from station: WNW 13km
Updated: 23/06/2021 00:00
Light rain, Mostly cloudy
Light rain, Mostly cloudy
 Wind from WSW
Wind: WSW 7 km/h
Temperature: 11°C
Dew Point: 9°C
Humidity: 88%
Barometer: 1025 hPa
Summary: Light rain
Clouds: Mostly cloudy
Visibility: 10 km
Cloud details: Partly cloudy 213 m
Mostly cloudy 3048 m
2021/06/22 23:00 EIDW 222300Z 24004KT 210V280 9999 -RA SCT007 BKN100 11/09 Q1025 NOSIG
EIME - Casement (mil), Ireland
Distance from station: WSW 26km
Updated: 23/06/2021 00:00
Light rain, Mostly cloudy
Light rain, Mostly cloudy
 Wind from WSW
Wind: WSW 13 km/h
Temperature: 10°C
Wind Chill: 8°C
Dew Point: 9°C
Humidity: 94%
Barometer: 1026 hPa
Summary: Light rain
Clouds: Mostly cloudy
Visibility: 10 km
Cloud details: Few Clouds 274 m
Partly cloudy 518 m
Mostly cloudy 2743 m
2021/06/22 23:00 EIME 222300Z 24007KT 9999 -RA FEW009 SCT017 BKN090 10/09 Q1026
 
EGAC - Belfast Harbour, United Kingdom
Distance from station: N 140km
Updated: 22/06/2021 23:50
Few Clouds
Few Clouds
 Wind from SW
Wind: SW 13 km/h
Temperature: 11°C
Dew Point: 9°C
Humidity: 88%
Barometer: 1024 hPa
Clouds: Few Clouds
Visibility: 10 km
Cloud details: Few Clouds 427 m
2021/06/22 22:50 EGAC 222250Z AUTO 22007KT 9999 FEW014/// 11/09 Q1024
EGAA - Belfast/Aldergro, United Kingdom
Distance from station: N 141km
Updated: 22/06/2021 23:50
Overcast
Overcast
 Wind from SW
Wind: SW 13 km/h
Temperature: 11°C
Dew Point: 10°C
Humidity: 94%
Barometer: 1024 hPa
Clouds: Overcast
Visibility: 10 km
Cloud details: Mostly cloudy 274 m
Overcast 396 m
2021/06/22 22:50 EGAA 222250Z 23007KT 9999 BKN009 OVC013 11/10 Q1024
 
EIWF - Waterford Arpt, Ireland
Distance from station: SSW 148km
Updated: 22/06/2021 21:30
NOT Current
Clear
Clear
 Wind from N
Wind: N 20 km/h
Temperature: 12°C
Dew Point: 8°C
Humidity: 77%
Barometer: 1026 hPa
Summary: Clear
Visibility: greater than 10 km
2021/06/22 20:30 EIWF 222030Z 35011KT 310V030 CAVOK 12/08 Q1026
EIKN - Connaught Apt, Ireland
Distance from station: WNW 191km
Updated: 21/06/2021 10:30
NOT Current
Partly cloudy
Partly cloudy
 Wind from N
Wind: N 22 km/h
Temperature: 12°C
Dew Point: 4°C
Humidity: 58%
Barometer: 1020 hPa
Clouds: Partly cloudy
Visibility: 10 km
Cloud details: Few Clouds 762 m
Partly cloudy 1067 m
2021/06/21 09:30 EIKN 210930Z 36012KT 320V030 9999 FEW025 SCT035 12/04 Q1020 NOSIG
 
EISG - Sligo Arpt, Ireland
Distance from station: WNW 195km
Updated: 22/06/2021 22:00
NOT Current
Overcast
Overcast
 Wind from S
Wind: S 7 km/h
Temperature: 11°C
Dew Point: 10°C
Humidity: 94%
Barometer: 1024 hPa
Clouds: Overcast
Visibility: 10 km
Cloud details: Overcast 579 m
2021/06/22 21:00 EISG 222100Z 17004KT 140V210 9999 OVC019 11/10 Q1024
EGAE - Eglinton/Londond, United Kingdom
Distance from station: NNW 198km
Updated: 22/06/2021 20:20
NOT Current
Partly cloudy
Partly cloudy
 Wind from SW
Wind: SW 20 km/h
Temperature: 12°C
Dew Point: 10°C
Humidity: 88%
Barometer: 1024 hPa
Clouds: Partly cloudy
Visibility: 10 km
Cloud details: Few Clouds 305 m
Partly cloudy 792 m
2021/06/22 19:20 EGAE 221920Z 22011KT 9999 FEW010 SCT026 12/10 Q1024
 
EINN - Shannon Airport, Ireland
Distance from station: WSW 204km
Updated: 23/06/2021 00:00
Light rain, Overcast
Light rain, Overcast
 Wind from WSW
Wind: WSW 13 km/h
Temperature: 11°C
Dew Point: 10°C
Humidity: 94%
Barometer: 1027 hPa
Summary: Light rain
Clouds: Overcast
Visibility: 6 km
Cloud details: Partly cloudy 183 m
Mostly cloudy 427 m
Overcast 3353 m
2021/06/22 23:00 EINN 222300Z 24007KT 6000 -RA SCT006 BKN014 OVC110 11/10 Q1027 TEMPO 4000 BKN010
EICK - Cork Arpt/Corcai, Ireland
Distance from station: SW 234km
Updated: 23/06/2021 00:00
Light rain, Mostly cloudy
Light rain, Mostly cloudy
 Wind from varies
Wind: varies 4 km/h
Temperature: 9°C
Dew Point: 8°C
Humidity: 94%
Barometer: 1027 hPa
Summary: Light rain
Clouds: Mostly cloudy
Visibility: 10 km
Cloud details: Mostly cloudy 1158 m
2021/06/22 23:00 EICK 222300Z VRB02KT 9999 -RA BKN038 09/08 Q1027 NOSIG